EHAM/AMS METAR and TAF weather

Enter ICAO airport designator
Station Type Date Time Source
EHAM METAR 2022/01/23 12:55 UTC NOAA

EHAM 231255Z 15003KT 9999 FEW010 BKN027 07/06 Q1035 NOSIG


Station Type Date Time Source
EHAM Decoded METAR 2022/01/23 12:55 UTC NOAA

Amsterdam Airport Schiphol, Netherlands (EHAM) 52-18N 004-46E -2M
Jan 23, 2022 - 07:55 AM EST / 2022.01.23 1255 UTC
Wind: from the SSE (150 degrees) at 3 MPH (3 KT):0
Visibility: greater than 7 mile(s):0
Sky conditions: mostly cloudy
Temperature: 44 F (7 C)
Dew Point: 42 F (6 C)
Relative Humidity: 93%
Pressure (altimeter): 30.56 in. Hg (1035 hPa)
ob: EHAM 231255Z 15003KT 9999 FEW010 BKN027 07/06 Q1035 NOSIG
cycle: 13

Station Type Date Time Source
EHAM TAF 2022/01/23 12:27 UTC NOAA

TAF TAF EHAM 231118Z 2312/2418 15005KT 9999 BKN030
BECMG 2321/2324 6000
BECMG 2400/2403 3000 BR NSC
BECMG 2403/2406 1400 BCFG PROB40 2404/2409 0500 FG VV001
BECMG 2409/2411 3000 BR BKN005
BECMG 2411/2414 8000 NSW SCT010
BECMG 2416/2418 6000

Example: see airport list